Time,TemperatureF,DewpointF,PressureIn,WindDirection,WindDirectionDegrees,WindSpeedMPH,WindSpeedGustMPH,Humidity,HourlyPrecipIn,Conditions,Clouds,dailyrainin,SoftwareType,DateUTC
2013-09-03 00:12:00,70.0,61.0,29.86,NNW,338,0.0,0.0,74,0.00,,,0.32,,2013-09-03 07:12:00,
2013-09-03 00:22:00,70.0,61.0,29.86,WSW,248,0.0,0.0,74,0.00,,,0.32,,2013-09-03 07:22:00,
2013-09-03 00:52:00,69.0,61.0,29.86,West,270,0.0,0.0,75,0.00,,,0.32,,2013-09-03 07:52:00,
2013-09-03 01:11:00,69.0,61.0,29.86,West,270,0.0,0.0,75,0.00,,,0.32,,2013-09-03 08:11:00,
2013-09-03 01:22:00,69.0,61.0,29.86,NW,315,0.0,0.0,75,0.00,,,0.32,,2013-09-03 08:22:00,
2013-09-03 01:52:00,69.0,60.0,29.87,NW,315,0.0,0.0,73,0.00,,,0.32,,2013-09-03 08:52:00,
2013-09-03 02:11:00,69.0,61.0,29.87,NNW,338,0.0,0.0,75,0.00,,,0.32,,2013-09-03 09:11:00,
2013-09-03 02:21:00,69.0,60.0,29.87,NNW,338,0.0,0.0,74,0.00,,,0.32,,2013-09-03 09:21:00,
2013-09-03 02:53:00,68.0,60.0,29.87,NNE,23,0.0,0.0,75,0.00,,,0.32,,2013-09-03 09:53:00,
2013-09-03 03:03:00,68.0,60.0,29.87,NNE,23,0.0,0.0,75,0.00,,,0.32,,2013-09-03 10:03:00,
2013-09-03 03:12:00,68.0,60.0,29.87,NNE,23,0.0,0.0,75,0.00,,,0.32,,2013-09-03 10:12:00,
2013-09-03 03:23:00,68.0,60.0,29.87,NNE,23,0.0,0.0,75,0.00,,,0.32,,2013-09-03 10:23:00,
2013-09-03 03:53:00,68.0,60.0,29.87,NNE,23,0.0,0.0,76,0.00,,,0.32,,2013-09-03 10:53:00,
2013-09-03 04:12:00,67.0,59.0,29.86,NNE,23,0.0,0.0,76,0.00,,,0.32,,2013-09-03 11:12:00,
2013-09-03 04:22:00,67.0,60.0,29.87,NNE,23,0.0,0.0,78,0.00,,,0.32,,2013-09-03 11:22:00,
2013-09-03 04:52:00,67.0,60.0,29.87,NNE,23,0.0,0.0,78,0.00,,,0.32,,2013-09-03 11:52:00,
2013-09-03 05:01:00,67.0,60.0,29.87,NNE,23,0.0,0.0,78,0.00,,,0.32,,2013-09-03 12:01:00,
2013-09-03 05:12:00,67.0,60.0,29.87,NNE,23,0.0,0.0,78,0.00,,,0.32,,2013-09-03 12:12:00,
2013-09-03 05:21:00,66.0,59.0,29.87,North,0,0.0,0.0,78,0.00,,,0.32,,2013-09-03 12:21:00,
2013-09-03 05:52:00,65.0,58.0,29.87,North,0,0.0,0.0,77,0.00,,,0.32,,2013-09-03 12:52:00,
2013-09-03 06:11:00,65.0,58.0,29.88,North,0,0.0,0.0,77,0.00,,,0.32,,2013-09-03 13:11:00,
2013-09-03 06:21:00,65.0,58.0,29.88,NW,315,0.0,0.0,77,0.00,,,0.32,,2013-09-03 13:21:00,
2013-09-03 06:52:00,65.0,58.0,29.89,North,0,0.0,0.0,77,0.00,,,0.32,,2013-09-03 13:52:00,
2013-09-03 07:11:00,64.0,57.0,29.89,North,0,0.0,0.0,77,0.00,,,0.30,,2013-09-03 14:11:00,
2013-09-03 07:21:00,64.0,57.0,29.90,NNW,338,0.0,0.0,77,0.00,,,0.30,,2013-09-03 14:21:00,
2013-09-03 07:52:00,64.0,57.0,29.90,NNW,338,0.0,0.0,77,0.00,,,0.30,,2013-09-03 14:52:00,
2013-09-03 08:22:00,64.0,57.0,29.91,NNW,338,0.0,0.0,77,0.00,,,0.26,,2013-09-03 15:22:00,
2013-09-03 08:53:00,65.0,58.0,29.92,WNW,293,0.0,0.0,77,0.00,,,0.26,,2013-09-03 15:53:00,
2013-09-03 09:04:00,65.0,58.0,29.92,WNW,293,0.0,0.0,77,0.00,,,0.26,,2013-09-03 16:04:00,
2013-09-03 09:14:00,65.0,58.0,29.92,WNW,293,0.0,0.0,77,0.00,,,0.26,,2013-09-03 16:14:00,
2013-09-03 10:23:00,70.0,58.0,29.92,WSW,248,5.0,7.0,65,0.00,,,0.12,,2013-09-03 17:23:00,
2013-09-03 10:52:00,72.0,58.0,29.93,WSW,248,1.0,2.0,62,0.00,,,0.12,,2013-09-03 17:52:00,
2013-09-03 11:11:00,73.0,57.0,29.93,WSW,248,3.0,6.0,58,0.00,,,0.10,,2013-09-03 18:11:00,
2013-09-03 11:21:00,74.0,58.0,29.94,NW,315,4.0,4.0,58,0.00,,,0.10,,2013-09-03 18:21:00,
2013-09-03 11:52:00,75.0,57.0,29.94,North,0,3.0,3.0,53,0.00,,,0.02,,2013-09-03 18:52:00,
2013-09-03 12:11:00,75.0,56.0,29.93,North,0,6.0,6.0,51,0.00,,,0.02,,2013-09-03 19:11:00,
2013-09-03 12:22:00,75.0,56.0,29.93,North,0,6.0,6.0,51,0.00,,,0.02,,2013-09-03 19:22:00,
2013-09-03 12:52:00,79.0,57.0,29.92,NNW,338,6.0,6.0,47,0.00,,,0.02,,2013-09-03 19:52:00,
2013-09-03 13:11:00,81.0,58.0,29.92,North,0,5.0,5.0,45,0.00,,,0.02,,2013-09-03 20:11:00,
2013-09-03 13:21:00,83.0,58.0,29.91,NNW,338,5.0,5.0,42,0.00,,,0.02,,2013-09-03 20:21:00,
2013-09-03 13:32:00,83.0,58.0,29.91,NNW,338,5.0,5.0,42,0.00,,,0.02,,2013-09-03 20:32:00,
2013-09-03 13:42:00,83.0,58.0,29.91,NNW,338,5.0,5.0,42,0.00,,,0.02,,2013-09-03 20:42:00,
2013-09-03 13:52:00,85.0,57.0,29.91,NNW,340,3.0,4.0,38,0.00,,,0.02,,2013-09-03 20:52:00,
2013-09-03 14:12:00,85.0,56.0,29.91,NNW,343,1.0,4.0,37,0.00,,,0.02,,2013-09-03 21:12:00,
2013-09-03 14:22:00,87.0,58.0,29.90,North,0,4.0,4.0,38,0.00,,,0.02,,2013-09-03 21:22:00,
2013-09-03 14:43:00,88.0,55.0,29.91,NNW,338,0.0,5.0,33,0.00,,,0.02,,2013-09-03 21:43:00,
2013-09-03 14:54:00,88.0,55.0,29.91,NNW,338,0.0,5.0,33,0.00,,,0.02,,2013-09-03 21:54:00,
2013-09-03 15:13:00,90.0,56.0,29.90,NNW,347,1.0,5.0,32,0.00,,,0.00,,2013-09-03 22:13:00,
2013-09-03 15:23:00,92.0,56.0,29.89,NNE,21,5.0,7.0,30,0.00,,,0.00,,2013-09-03 22:23:00,
2013-09-03 15:52:00,92.0,56.0,29.89,NNW,338,0.0,7.0,30,0.00,,,0.00,,2013-09-03 22:52:00,
2013-09-03 17:22:00,90.0,49.0,29.86,NNE,23,0.0,2.0,25,0.00,,,0.00,,2013-09-04 00:22:00,
2013-09-03 17:42:00,89.0,50.0,29.86,North,0,2.0,2.0,26,0.00,,,0.00,,2013-09-04 00:42:00,
2013-09-03 17:52:00,88.0,50.0,29.86,North,356,5.0,6.0,27,0.00,,,0.00,,2013-09-04 00:52:00,
2013-09-03 18:11:00,87.0,48.0,29.85,NNW,342,2.0,2.0,26,0.00,,,0.00,,2013-09-04 01:11:00,
2013-09-03 18:21:00,86.0,48.0,29.86,NW,322,3.0,4.0,27,0.00,,,0.00,,2013-09-04 01:21:00,
2013-09-03 18:42:00,86.0,48.0,29.85,NNE,23,2.0,4.0,27,0.00,,,0.00,,2013-09-04 01:42:00,
2013-09-03 18:52:00,85.0,48.0,29.85,NNW,338,4.0,4.0,28,0.00,,,0.00,,2013-09-04 01:52:00,
2013-09-03 19:11:00,84.0,46.0,29.85,North,4,2.0,2.0,27,0.00,,,0.00,,2013-09-04 02:11:00,
2013-09-03 19:22:00,84.0,46.0,29.85,North,0,1.0,4.0,27,0.00,,,0.00,,2013-09-04 02:22:00,
2013-09-03 19:42:00,83.0,47.0,29.85,North,0,1.0,4.0,28,0.00,,,0.00,,2013-09-04 02:42:00,
2013-09-03 19:52:00,81.0,45.0,29.85,North,0,2.0,2.0,28,0.00,,,0.00,,2013-09-04 02:52:00,
2013-09-03 20:11:00,81.0,47.0,29.85,North,0,0.0,2.0,30,0.00,,,0.00,,2013-09-04 03:11:00,
2013-09-03 20:22:00,80.0,46.0,29.85,NNW,338,0.0,5.0,30,0.00,,,0.00,,2013-09-04 03:22:00,
2013-09-03 20:54:00,77.0,46.0,29.87,North,0,0.0,0.0,33,0.00,,,0.00,,2013-09-04 03:54:00,
2013-09-03 21:14:00,76.0,46.0,29.87,North,0,0.0,0.0,35,0.00,,,0.00,,2013-09-04 04:14:00,
2013-09-03 21:54:00,74.0,47.0,29.88,NNW,338,0.0,0.0,38,0.00,,,0.00,,2013-09-04 04:54:00,
2013-09-03 22:12:00,73.0,49.0,29.90,North,0,0.0,0.0,42,0.00,,,0.00,,2013-09-04 05:12:00,
2013-09-03 22:23:00,73.0,49.0,29.90,North,0,0.0,0.0,42,0.00,,,0.00,,2013-09-04 05:23:00,
2013-09-03 22:34:00,73.0,49.0,29.90,North,0,0.0,0.0,42,0.00,,,0.00,,2013-09-04 05:34:00,
2013-09-03 22:53:00,71.0,48.0,29.89,NW,315,0.0,0.0,44,0.00,,,0.00,,2013-09-04 05:53:00,
2013-09-03 23:12:00,71.0,50.0,29.90,SW,225,0.0,0.0,47,0.00,,,0.00,,2013-09-04 06:12:00,
2013-09-03 23:22:00,70.0,50.0,29.89,SW,225,1.0,1.0,50,0.00,,,0.00,,2013-09-04 06:22:00,
2013-09-03 23:52:00,69.0,51.0,29.90,WNW,293,0.0,0.0,52,0.00,,,0.00,,2013-09-04 06:52:00,